Time;durP1;ratioP1;P1;durP2;ratioP2;P2;SDS_P1;SDS_P2;PMS_P1;PMS_P2;Temp;Humidity;BMP_temperature;BMP_pressure;BME280_temperature;BME280_humidity;BME280_pressure;Samples;Min_cycle;Max_cycle;Signal;HPM_P1;HPM_P2
2022/07/25 00:01:48;;;;;;;11.00;9.10;;;20.90;99.90;;;;;;5011412;28;20447;-71
2022/07/25 00:04:14;;;;;;;10.27;9.32;;;20.80;99.90;;;;;;5012162;28;20044;-71
2022/07/25 00:06:41;;;;;;;10.15;8.65;;;20.80;99.90;;;;;;5011958;28;20097;-71
2022/07/25 00:09:06;;;;;;;10.95;9.48;;;20.60;99.90;;;;;;5012079;28;20449;-71
2022/07/25 00:11:32;;;;;;;9.57;8.68;;;20.80;99.90;;;;;;5011337;28;20061;-71
2022/07/25 00:13:58;;;;;;;12.32;9.32;;;20.60;99.90;;;;;;5011993;28;20018;-71
2022/07/25 00:16:25;;;;;;;10.95;8.60;;;20.70;99.90;;;;;;5011928;28;20048;-73
2022/07/25 00:18:50;;;;;;;10.48;8.98;;;20.70;99.90;;;;;;5011860;28;20084;-71
2022/07/25 00:21:16;;;;;;;11.93;9.02;;;20.60;99.90;;;;;;5011164;28;20034;-71
2022/07/25 00:23:41;;;;;;;10.30;9.30;;;20.60;99.90;;;;;;5011697;28;20024;-72
2022/07/25 00:26:07;;;;;;;9.68;8.75;;;20.50;99.90;;;;;;5011802;28;20030;-71
2022/07/25 00:28:33;;;;;;;10.82;9.40;;;20.50;99.90;;;;;;5011848;28;20026;-72
2022/07/25 00:30:58;;;;;;;10.40;9.25;;;20.50;99.90;;;;;;5011249;28;20041;-72
2022/07/25 00:33:24;;;;;;;9.30;8.45;;;20.50;99.90;;;;;;5011852;28;20030;-72
2022/07/25 00:35:49;;;;;;;10.05;9.05;;;20.50;99.90;;;;;;5024088;28;20030;-71
2022/07/25 00:38:15;;;;;;;10.73;9.52;;;20.40;99.90;;;;;;5031441;28;20090;-72
2022/07/25 00:40:41;;;;;;;12.25;9.45;;;20.30;99.90;;;;;;5018771;28;20034;-71
2022/07/25 00:43:06;;;;;;;10.18;9.13;;;20.30;99.90;;;;;;5007186;28;20035;-73
2022/07/25 00:45:32;;;;;;;10.20;8.93;;;20.30;99.90;;;;;;5004252;28;20495;-72
2022/07/25 00:47:58;;;;;;;11.50;9.02;;;20.50;99.90;;;;;;5011677;28;20044;-71
2022/07/25 00:50:23;;;;;;;10.57;9.48;;;20.40;99.90;;;;;;5010995;28;20033;-71
2022/07/25 00:52:49;;;;;;;11.40;9.02;;;20.40;99.90;;;;;;5011461;28;20018;-72
2022/07/25 00:55:15;;;;;;;10.35;9.32;;;20.30;99.90;;;;;;5011587;28;20057;-71
2022/07/25 00:57:41;;;;;;;10.38;9.38;;;20.20;99.90;;;;;;5011590;28;20067;-71
2022/07/25 01:00:10;;;;;;;10.90;9.40;;;20.30;99.90;;;;;;5015280;28;20544;-71
2022/07/25 01:02:36;;;;;;;10.20;9.10;;;20.20;99.90;;;;;;5014873;28;20021;-70
2022/07/25 01:05:03;;;;;;;10.63;9.20;;;20.20;99.90;;;;;;5015266;28;20030;-71
2022/07/25 01:07:29;;;;;;;10.98;9.40;;;20.10;99.90;;;;;;5015217;28;20492;-71
2022/07/25 01:09:56;;;;;;;10.52;9.35;;;20.10;99.90;;;;;;5015291;28;20026;-71
2022/07/25 01:12:21;;;;;;;9.65;8.75;;;20.10;99.90;;;;;;5014587;28;20022;-71
2022/07/25 01:14:47;;;;;;;9.98;8.98;;;20.20;99.90;;;;;;5015214;28;20551;-71
2022/07/25 01:17:13;;;;;;;10.02;9.13;;;20.10;99.90;;;;;;5014939;28;20558;-71
2022/07/25 01:19:38;;;;;;;10.75;9.65;;;20.10;99.90;;;;;;5015004;28;20137;-71
2022/07/25 01:22:04;;;;;;;10.63;9.43;;;20.00;99.90;;;;;;5014148;28;20030;-72
2022/07/25 01:24:30;;;;;;;10.57;9.45;;;20.00;99.90;;;;;;5014968;28;20550;-72
2022/07/25 01:26:55;;;;;;;11.30;9.52;;;20.00;99.90;;;;;;5014838;28;20493;-71
2022/07/25 01:29:21;;;;;;;10.35;9.35;;;20.00;99.90;;;;;;5014958;28;20096;-71
2022/07/25 01:31:46;;;;;;;11.05;9.95;;;20.10;99.90;;;;;;5014140;28;20053;-71
2022/07/25 01:34:12;;;;;;;11.45;10.27;;;19.90;99.90;;;;;;5014761;28;20022;-71
2022/07/25 01:36:38;;;;;;;10.80;9.70;;;19.90;99.90;;;;;;5014746;28;21272;-71
2022/07/25 01:39:03;;;;;;;10.63;9.52;;;20.00;99.90;;;;;;5014767;28;20030;-72
2022/07/25 01:41:29;;;;;;;11.15;10.07;;;20.00;99.90;;;;;;5013910;28;20087;-72
2022/07/25 01:43:55;;;;;;;11.10;9.75;;;20.00;99.90;;;;;;5014637;28;20369;-72
2022/07/25 01:46:20;;;;;;;10.95;9.85;;;20.00;99.90;;;;;;5014551;28;20401;-72
2022/07/25 01:48:46;;;;;;;11.18;10.07;;;20.00;99.90;;;;;;5014464;28;20481;-72
2022/07/25 01:51:12;;;;;;;11.70;9.80;;;19.90;99.90;;;;;;5013799;28;20376;-72
2022/07/25 01:53:37;;;;;;;10.50;9.50;;;19.80;99.90;;;;;;5014498;28;20030;-72
2022/07/25 01:56:04;;;;;;;12.82;9.88;;;19.60;99.90;;;;;;5030737;28;20100;-71
2022/07/25 01:58:30;;;;;;;10.48;9.45;;;19.60;99.90;;;;;;5014366;28;20054;-72
2022/07/25 02:00:56;;;;;;;10.32;9.32;;;19.70;99.90;;;;;;5013529;28;20460;-72
2022/07/25 02:03:31;;;;;;;11.05;9.95;;;19.70;99.90;;;;;;5014207;28;20014;-73
2022/07/25 02:06:06;;;;;;;10.68;9.63;;;19.70;99.90;;;;;;5014168;28;20022;-73
2022/07/25 02:08:33;;;;;;;11.60;9.60;;;19.70;99.90;;;;;;5014550;28;20026;-73
2022/07/25 02:10:59;;;;;;;11.48;10.27;;;19.60;99.90;;;;;;5032180;28;20044;-72
2022/07/25 02:13:25;;;;;;;11.18;10.02;;;19.40;99.90;;;;;;5032619;28;20025;-72
2022/07/25 02:15:51;;;;;;;10.88;9.75;;;19.60;99.90;;;;;;5033645;28;20037;-72
2022/07/25 02:18:16;;;;;;;11.23;9.85;;;19.30;99.90;;;;;;5033935;28;20025;-73
2022/07/25 02:20:42;;;;;;;11.02;9.93;;;19.40;99.90;;;;;;5026518;28;20049;-74
2022/07/25 02:23:08;;;;;;;10.48;9.43;;;19.30;99.90;;;;;;5027271;28;20029;-74
2022/07/25 02:25:34;;;;;;;11.18;9.95;;;19.30;99.90;;;;;;5033605;28;20049;-72
2022/07/25 02:28:00;;;;;;;10.90;9.57;;;19.30;99.90;;;;;;5033671;28;20072;-72
2022/07/25 02:30:26;;;;;;;11.13;10.02;;;19.30;99.90;;;;;;5032948;28;20602;-72
2022/07/25 02:32:52;;;;;;;12.73;10.55;;;19.30;99.90;;;;;;5033411;28;20387;-71
2022/07/25 02:35:17;;;;;;;11.43;10.32;;;19.20;99.90;;;;;;5033265;28;20495;-71
2022/07/25 02:37:43;;;;;;;11.75;9.70;;;19.20;99.90;;;;;;5033337;28;20480;-71
2022/07/25 02:40:09;;;;;;;10.75;9.32;;;19.30;99.90;;;;;;5033325;28;20014;-71
2022/07/25 02:42:35;;;;;;;11.48;10.30;;;19.20;99.90;;;;;;5032658;28;20499;-72
2022/07/25 02:45:01;;;;;;;11.43;10.23;;;19.30;99.90;;;;;;5033047;28;20030;-72
2022/07/25 02:47:26;;;;;;;11.43;10.32;;;19.20;99.90;;;;;;5033180;28;20029;-72
2022/07/25 02:49:52;;;;;;;12.30;9.38;;;19.20;99.90;;;;;;5025211;28;20022;-72
2022/07/25 02:52:17;;;;;;;11.00;9.90;;;19.20;99.90;;;;;;5012742;28;20042;-72
2022/07/25 02:54:43;;;;;;;11.68;10.07;;;19.20;99.90;;;;;;5013322;28;20017;-72
2022/07/25 02:57:08;;;;;;;11.40;10.30;;;19.40;99.90;;;;;;5011864;28;20485;-72
2022/07/25 02:59:34;;;;;;;10.98;9.88;;;19.10;99.90;;;;;;5013083;28;20026;-72
2022/07/25 03:01:59;;;;;;;13.55;11.07;;;19.40;99.90;;;;;;5012551;28;20033;-72
2022/07/25 03:04:25;;;;;;;13.23;11.48;;;19.40;99.90;;;;;;5013026;28;20056;-72
2022/07/25 03:06:51;;;;;;;12.68;11.55;;;19.60;99.90;;;;;;5012926;28;20046;-72
2022/07/25 03:09:16;;;;;;;14.30;11.80;;;19.40;99.90;;;;;;5013213;28;20048;-72
2022/07/25 03:11:42;;;;;;;12.48;11.18;;;19.30;99.90;;;;;;5012708;28;20030;-72
2022/07/25 03:14:08;;;;;;;12.77;11.25;;;19.30;99.90;;;;;;5012959;28;20377;-72
2022/07/25 03:16:33;;;;;;;13.57;11.23;;;19.20;99.90;;;;;;5012766;28;20029;-73
2022/07/25 03:18:59;;;;;;;12.30;11.10;;;19.40;99.90;;;;;;5012897;28;20492;-72
2022/07/25 03:21:24;;;;;;;16.08;10.98;;;19.30;99.90;;;;;;5026138;28;20033;-72
2022/07/25 03:23:50;;;;;;;12.48;11.27;;;19.40;99.90;;;;;;5032599;28;20029;-73
2022/07/25 03:26:16;;;;;;;11.77;10.60;;;19.40;99.90;;;;;;5032372;28;20026;-72
2022/07/25 03:28:41;;;;;;;12.60;10.57;;;19.30;99.90;;;;;;5032380;28;20026;-73
2022/07/25 03:31:07;;;;;;;12.18;10.98;;;19.20;99.90;;;;;;5031574;28;20045;-73
2022/07/25 03:33:33;;;;;;;11.77;10.20;;;19.20;99.90;;;;;;5025759;28;20643;-72
2022/07/25 03:35:59;;;;;;;11.45;10.35;;;19.30;99.90;;;;;;5010600;28;20040;-70
2022/07/25 03:38:24;;;;;;;13.38;11.30;;;19.50;99.90;;;;;;5008162;28;20019;-71
2022/07/25 03:40:50;;;;;;;12.25;11.05;;;19.30;99.90;;;;;;5005971;28;20030;-71
2022/07/25 03:43:16;;;;;;;13.00;11.63;;;19.60;99.90;;;;;;5012293;28;20072;-70
2022/07/25 03:45:41;;;;;;;12.63;11.32;;;19.40;99.90;;;;;;5011964;28;20079;-71
2022/07/25 03:48:07;;;;;;;12.77;11.40;;;19.30;99.90;;;;;;5012280;28;20096;-72
2022/07/25 03:50:32;;;;;;;14.15;11.63;;;19.50;99.90;;;;;;5011478;28;20053;-72
2022/07/25 03:52:58;;;;;;;13.15;11.75;;;19.60;99.90;;;;;;5018192;28;20022;-72
2022/07/25 03:55:24;;;;;;;12.45;11.32;;;19.80;99.90;;;;;;5031809;28;20021;-72
2022/07/25 03:57:49;;;;;;;13.00;11.25;;;19.80;99.90;;;;;;5012468;28;20524;-72
2022/07/25 04:00:16;;;;;;;13.00;11.70;;;19.70;99.90;;;;;;5011590;28;20037;-73
2022/07/25 04:02:41;;;;;;;17.00;11.95;;;19.70;99.90;;;;;;5011870;28;20018;-71
2022/07/25 04:05:08;;;;;;;12.73;11.52;;;19.60;99.90;;;;;;5012023;28;20088;-71
2022/07/25 04:07:35;;;;;;;12.48;11.18;;;19.60;99.90;;;;;;5011991;28;20064;-70
2022/07/25 04:10:03;;;;;;;14.95;11.88;;;19.50;99.90;;;;;;5012019;28;20066;-71
2022/07/25 04:12:28;;;;;;;14.93;11.18;;;19.40;99.90;;;;;;5011384;28;20084;-71
2022/07/25 04:14:54;;;;;;;12.73;11.27;;;19.50;99.90;;;;;;5012010;28;20384;-71
2022/07/25 04:17:20;;;;;;;11.65;10.52;;;19.60;99.90;;;;;;5011756;28;20105;-71
2022/07/25 04:19:45;;;;;;;14.48;11.30;;;19.50;99.90;;;;;;5011899;28;20033;-71
2022/07/25 04:22:11;;;;;;;12.27;11.02;;;19.40;99.90;;;;;;5030735;28;20029;-71
2022/07/25 04:24:36;;;;;;;13.25;11.75;;;19.50;99.90;;;;;;5015229;28;20465;-73
2022/07/25 04:27:02;;;;;;;12.20;11.02;;;19.70;99.90;;;;;;5011613;28;20025;-72
2022/07/25 04:29:28;;;;;;;12.25;10.85;;;19.50;99.90;;;;;;5011738;28;20030;-72
2022/07/25 04:31:53;;;;;;;11.85;10.65;;;19.70;99.90;;;;;;5011056;28;20097;-72
2022/07/25 04:34:19;;;;;;;13.48;11.15;;;19.70;99.90;;;;;;5014662;28;20033;-72
2022/07/25 04:36:44;;;;;;;12.00;10.80;;;20.00;99.90;;;;;;5015709;28;20041;-72
2022/07/25 04:39:10;;;;;;;11.50;10.40;;;19.90;99.90;;;;;;5015842;28;20022;-73
2022/07/25 04:41:36;;;;;;;11.68;10.48;;;19.90;99.90;;;;;;5014844;28;20105;-72
2022/07/25 04:44:02;;;;;;;13.23;11.32;;;19.90;99.90;;;;;;5015629;28;20084;-72
2022/07/25 04:46:27;;;;;;;11.90;10.82;;;20.00;99.90;;;;;;5015347;28;20061;-72
2022/07/25 04:48:53;;;;;;;12.50;11.25;;;20.10;99.90;;;;;;5015550;28;20034;-73
2022/07/25 04:51:18;;;;;;;12.73;11.18;;;20.20;99.90;;;;;;5014760;28;20038;-72
2022/07/25 04:53:44;;;;;;;12.48;10.48;;;20.20;99.90;;;;;;5015520;28;20030;-72
2022/07/25 04:56:10;;;;;;;15.30;13.80;;;20.30;99.90;;;;;;5018783;28;20041;-72
2022/07/25 04:58:36;;;;;;;14.05;11.10;;;20.40;99.90;;;;;;5015201;28;20025;-72
2022/07/25 05:01:01;;;;;;;12.23;11.02;;;20.60;99.90;;;;;;5014602;28;20037;-72
2022/07/25 05:03:27;;;;;;;13.13;10.75;;;20.60;99.90;;;;;;5015252;28;20114;-72
2022/07/25 05:05:52;;;;;;;15.50;11.10;;;20.80;99.90;;;;;;5014735;28;20022;-72
2022/07/25 05:08:18;;;;;;;11.52;10.25;;;20.80;99.90;;;;;;5014585;28;20029;-72
2022/07/25 05:10:44;;;;;;;13.00;11.60;;;20.80;99.90;;;;;;5012867;28;20022;-72
2022/07/25 05:13:09;;;;;;;11.68;10.48;;;20.80;99.90;;;;;;5014234;28;20033;-72
2022/07/25 05:15:35;;;;;;;12.10;10.90;;;20.90;99.90;;;;;;5014090;28;20060;-72
2022/07/25 05:18:00;;;;;;;11.13;9.95;;;20.50;99.90;;;;;;5014353;28;20124;-72
2022/07/25 05:20:26;;;;;;;11.32;10.10;;;20.60;99.90;;;;;;5013748;28;20133;-72
2022/07/25 05:22:52;;;;;;;13.32;11.07;;;20.90;99.90;;;;;;5014925;28;20029;-72
2022/07/25 05:25:18;;;;;;;11.40;10.30;;;21.00;99.90;;;;;;5014815;28;20018;-72
2022/07/25 05:27:44;;;;;;;12.48;10.63;;;21.20;99.90;;;;;;5026930;28;20384;-72
2022/07/25 05:30:11;;;;;;;12.02;10.65;;;21.40;99.90;;;;;;5034365;28;20024;-72
2022/07/25 05:32:38;;;;;;;11.88;10.27;;;21.60;99.90;;;;;;5034219;28;20112;-72
2022/07/25 05:35:06;;;;;;;11.27;10.07;;;21.80;99.90;;;;;;5034534;28;20021;-72
2022/07/25 05:37:35;;;;;;;11.70;9.93;;;21.90;99.90;;;;;;5034436;28;20480;-72
2022/07/25 05:40:02;;;;;;;12.05;10.77;;;22.00;99.90;;;;;;5034280;28;20471;-72
2022/07/25 05:42:28;;;;;;;11.98;10.43;;;22.20;99.90;;;;;;5033708;28;20032;-72
2022/07/25 05:44:54;;;;;;;11.90;10.68;;;22.30;99.90;;;;;;5034156;28;20542;-72
2022/07/25 05:47:20;;;;;;;12.60;11.25;;;22.50;99.90;;;;;;5034029;28;20021;-72
2022/07/25 05:49:46;;;;;;;11.93;10.73;;;22.70;99.90;;;;;;5027235;28;20013;-72
2022/07/25 05:52:11;;;;;;;11.25;10.02;;;22.80;99.90;;;;;;5013819;28;20030;-73
2022/07/25 05:54:38;;;;;;;11.38;10.25;;;22.90;99.90;;;;;;5014349;28;20077;-71
2022/07/25 05:57:04;;;;;;;10.38;9.32;;;22.80;99.90;;;;;;5014287;28;20180;-72
2022/07/25 05:59:29;;;;;;;11.43;10.32;;;22.90;99.90;;;;;;5014269;28;20076;-71
2022/07/25 06:01:55;;;;;;;11.07;9.90;;;23.00;99.90;;;;;;5013462;28;20409;-71
2022/07/25 06:04:20;;;;;;;11.18;10.15;;;23.10;99.90;;;;;;5014262;28;20018;-72
2022/07/25 06:06:50;;;;;;;14.38;10.50;;;23.00;99.90;;;;;;5014102;28;20026;-72
2022/07/25 06:09:22;;;;;;;11.75;10.23;;;22.80;99.90;;;;;;5014051;28;20113;-72
2022/07/25 06:11:48;;;;;;;12.55;10.68;;;22.80;99.90;;;;;;5013324;28;20034;-72
2022/07/25 06:14:14;;;;;;;13.13;10.70;;;22.90;99.90;;;;;;5014043;28;20034;-72
2022/07/25 06:16:40;;;;;;;12.32;10.57;;;23.10;99.90;;;;;;5013835;28;20037;-72
2022/07/25 06:19:06;;;;;;;11.25;9.10;;;23.30;99.90;;;;;;5014019;28;20029;-72
2022/07/25 06:21:31;;;;;;;10.38;9.27;;;23.80;99.90;;;;;;5013191;28;20066;-72
2022/07/25 06:23:57;;;;;;;10.82;8.85;;;24.30;99.90;;;;;;5013804;28;20503;-72
2022/07/25 06:26:23;;;;;;;12.38;8.85;;;24.70;99.90;;;;;;5013563;28;20164;-72
2022/07/25 06:28:49;;;;;;;9.68;8.77;;;24.90;99.90;;;;;;5013713;28;20089;-72
2022/07/25 06:31:15;;;;;;;9.57;8.38;;;25.00;99.90;;;;;;5012886;28;20536;-72
2022/07/25 06:33:41;;;;;;;11.73;9.07;;;25.10;99.90;;;;;;5013648;28;20105;-72
2022/07/25 06:36:06;;;;;;;9.88;8.90;;;25.30;99.90;;;;;;5013545;28;20041;-72
2022/07/25 06:38:32;;;;;;;9.80;8.63;;;25.40;99.90;;;;;;5013499;28;20157;-72
2022/07/25 06:40:58;;;;;;;9.15;8.25;;;25.50;99.90;;;;;;5012730;28;20041;-72
2022/07/25 06:43:24;;;;;;;11.90;8.65;;;25.60;99.90;;;;;;5013476;28;20018;-72
2022/07/25 06:45:50;;;;;;;9.55;8.65;;;25.70;99.90;;;;;;5013227;28;20014;-72
2022/07/25 06:48:16;;;;;;;12.20;8.68;;;25.80;99.90;;;;;;5013199;28;20040;-72
2022/07/25 06:50:42;;;;;;;10.80;8.48;;;25.90;99.90;;;;;;5012573;28;20489;-72
2022/07/25 06:53:08;;;;;;;12.00;8.82;;;26.00;99.90;;;;;;5013229;28;20042;-72
2022/07/25 06:55:34;;;;;;;11.05;8.52;;;26.00;99.90;;;;;;5012651;28;20147;-72
2022/07/25 06:57:59;;;;;;;10.95;7.70;;;26.20;99.90;;;;;;5013096;28;20026;-72
2022/07/25 07:00:25;;;;;;;8.88;8.07;;;26.20;99.90;;;;;;5012383;28;20022;-72
2022/07/25 07:02:54;;;;;;;9.05;8.15;;;26.30;99.90;;;;;;5013142;28;20496;-71
2022/07/25 07:05:20;;;;;;;9.63;8.32;;;26.30;99.90;;;;;;5012921;28;20022;-72
2022/07/25 07:07:46;;;;;;;13.52;8.10;;;26.40;99.90;;;;;;5013018;28;20117;-72
2022/07/25 07:10:12;;;;;;;10.82;8.52;;;26.40;99.90;;;;;;5012819;28;20396;-72
2022/07/25 07:12:37;;;;;;;10.95;9.05;;;26.50;99.90;;;;;;5012609;28;20400;-71
2022/07/25 07:15:04;;;;;;;9.85;8.50;;;26.60;99.90;;;;;;5011721;28;20417;-72
2022/07/25 07:17:29;;;;;;;11.30;8.75;;;26.60;99.90;;;;;;5005271;28;20034;-72
2022/07/25 07:19:55;;;;;;;11.38;8.48;;;26.70;99.90;;;;;;5012603;28;20028;-72
2022/07/25 07:22:20;;;;;;;13.43;8.20;;;26.80;99.90;;;;;;5010165;28;20037;-70
2022/07/25 07:24:46;;;;;;;11.20;8.10;;;26.90;99.90;;;;;;5012516;28;20381;-71
2022/07/25 07:27:12;;;;;;;10.38;8.23;;;26.90;99.90;;;;;;5012486;28;20032;-71
2022/07/25 07:29:37;;;;;;;10.13;8.38;;;27.00;99.90;;;;;;5012543;28;20029;-72
2022/07/25 07:32:03;;;;;;;10.27;8.10;;;27.00;99.90;;;;;;5011976;28;20465;-71
2022/07/25 07:34:29;;;;;;;9.68;8.68;;;27.30;99.90;;;;;;5012474;28;20439;-71
2022/07/25 07:36:54;;;;;;;10.23;8.70;;;27.20;99.90;;;;;;5012289;28;20418;-72
2022/07/25 07:39:20;;;;;;;9.65;8.43;;;27.20;99.90;;;;;;5012406;28;20053;-71
2022/07/25 07:41:45;;;;;;;10.98;8.23;;;27.40;99.90;;;;;;5011669;28;20096;-72
2022/07/25 07:44:11;;;;;;;14.57;8.27;;;27.70;99.90;;;;;;5012262;28;20388;-72
2022/07/25 07:46:37;;;;;;;10.82;8.32;;;27.90;99.90;;;;;;5012209;28;20028;-72
2022/07/25 07:49:02;;;;;;;9.40;8.40;;;27.90;99.90;;;;;;5011342;28;20034;-72
2022/07/25 07:51:28;;;;;;;9.38;8.32;;;27.80;99.90;;;;;;5011508;28;20037;-71
2022/07/25 07:56:38;;;;;;;9.35;8.32;;;27.80;99.90;;;;;;5012185;28;20048;-72
2022/07/25 07:59:03;;;;;;;10.75;7.45;;;27.90;99.90;;;;;;5012025;28;20447;-72
2022/07/25 08:01:30;;;;;;;9.45;7.85;;;27.90;99.90;;;;;;5011487;28;20121;-72
2022/07/25 08:03:56;;;;;;;9.48;8.10;;;28.10;99.90;;;;;;5011887;28;20102;-72
2022/07/25 08:06:21;;;;;;;9.57;7.90;;;28.20;99.90;;;;;;5010761;28;20109;-71
2022/07/25 08:08:47;;;;;;;9.52;7.75;;;28.30;99.90;;;;;;5009567;28;20037;-71
2022/07/25 08:11:12;;;;;;;10.05;8.02;;;28.40;99.90;;;;;;5010405;28;20032;-71
2022/07/25 08:13:38;;;;;;;9.20;8.30;;;28.40;99.90;;;;;;5011769;28;20033;-71
2022/07/25 08:16:04;;;;;;;11.13;8.25;;;28.50;99.90;;;;;;5011806;28;20030;-71
2022/07/25 08:18:31;;;;;;;9.25;8.20;;;28.40;99.90;;;;;;5011733;28;20388;-72
2022/07/25 08:20:59;;;;;;;9.93;8.25;;;28.50;99.90;;;;;;5011060;28;20030;-72
2022/07/25 08:23:26;;;;;;;9.93;7.78;;;28.70;99.90;;;;;;5011727;28;20018;-72
2022/07/25 08:25:53;;;;;;;8.40;7.60;;;28.70;99.90;;;;;;5011654;28;20479;-72
2022/07/25 08:28:19;;;;;;;9.15;7.72;;;29.00;99.90;;;;;;5011672;28;20061;-72
2022/07/25 08:30:44;;;;;;;9.27;8.25;;;29.00;99.90;;;;;;5011170;28;20025;-72
2022/07/25 08:33:12;;;;;;;8.25;7.45;;;29.30;99.90;;;;;;5011494;28;20037;-72
2022/07/25 08:35:39;;;;;;;9.55;7.38;;;29.30;99.70;;;;;;5011558;28;20026;-72
2022/07/25 08:38:05;;;;;;;9.05;8.15;;;29.40;99.60;;;;;;5011638;28;20022;-72
2022/07/25 08:40:33;;;;;;;8.57;7.78;;;29.40;99.50;;;;;;5010985;28;20488;-72
2022/07/25 08:42:59;;;;;;;11.70;7.85;;;29.50;99.20;;;;;;5011490;28;20506;-72
2022/07/25 08:45:26;;;;;;;8.95;7.63;;;29.60;98.90;;;;;;5011443;28;20014;-72
2022/07/25 08:47:53;;;;;;;9.52;7.85;;;29.70;98.70;;;;;;5011461;28;20026;-71
2022/07/25 08:50:22;;;;;;;13.57;7.95;;;29.80;98.20;;;;;;5010877;28;20088;-72
2022/07/25 08:52:49;;;;;;;8.85;7.80;;;29.80;98.30;;;;;;5011096;28;20017;-72
2022/07/25 08:55:19;;;;;;;10.82;7.80;;;30.00;98.60;;;;;;5011639;28;20025;-72
2022/07/25 08:57:46;;;;;;;9.25;8.35;;;30.10;98.50;;;;;;5011337;28;20105;-72
2022/07/25 09:00:15;;;;;;;8.23;7.53;;;30.00;97.80;;;;;;5011083;28;20025;-72
2022/07/25 09:02:41;;;;;;;10.73;7.97;;;30.30;98.10;;;;;;5011398;28;20036;-72
2022/07/25 09:05:07;;;;;;;10.38;8.10;;;30.50;97.50;;;;;;5011301;28;20041;-72
2022/07/25 09:07:35;;;;;;;8.80;8.00;;;30.50;97.70;;;;;;5006769;28;20023;-72
2022/07/25 09:10:23;;;;;;;9.00;8.07;;;30.60;97.00;;;;;;5005497;28;20017;-72
2022/07/25 09:12:54;;;;;;;9.10;7.75;;;30.70;96.70;;;;;;5011207;28;20026;-72
2022/07/25 09:15:37;;;;;;;10.55;8.13;;;30.80;96.80;;;;;;5011232;28;20125;-72
2022/07/25 09:18:05;;;;;;;10.20;7.80;;;30.60;96.40;;;;;;5011197;28;20065;-72
2022/07/25 09:20:54;;;;;;;10.68;8.45;;;30.70;97.30;;;;;;5013678;28;20408;-72
2022/07/25 09:23:34;;;;;;;9.98;8.15;;;30.80;96.80;;;;;;5014961;28;20030;-72
2022/07/25 09:26:11;;;;;;;10.10;8.18;;;30.80;96.50;;;;;;5014734;28;20029;-72
2022/07/25 09:28:48;;;;;;;9.38;7.60;;;31.20;96.40;;;;;;5014698;28;20546;-72
2022/07/25 09:31:17;;;;;;;8.48;7.68;;;31.30;95.90;;;;;;5013915;28;20029;-72
2022/07/25 09:33:47;;;;;;;8.80;7.95;;;31.20;95.90;;;;;;5014031;28;20041;-71
2022/07/25 09:36:13;;;;;;;9.05;8.20;;;31.00;96.20;;;;;;5014467;28;20040;-73
2022/07/25 09:38:39;;;;;;;9.13;8.23;;;31.40;95.70;;;;;;5014624;28;20022;-73
2022/07/25 09:41:06;;;;;;;9.82;8.05;;;31.50;96.00;;;;;;5013744;28;20084;-73
2022/07/25 09:43:42;;;;;;;9.20;8.25;;;31.60;95.00;;;;;;5014485;28;20014;-73
2022/07/25 09:46:09;;;;;;;7.97;7.28;;;31.60;95.20;;;;;;5014335;28;20241;-73
2022/07/25 09:48:38;;;;;;;8.27;7.38;;;31.80;94.60;;;;;;5014359;28;20484;-73
2022/07/25 09:51:04;;;;;;;8.68;7.30;;;31.80;94.70;;;;;;5013674;28;20018;-73
2022/07/25 09:53:30;;;;;;;8.75;7.95;;;32.00;94.90;;;;;;5014455;28;20503;-73
2022/07/25 09:55:56;;;;;;;8.77;7.20;;;32.10;94.00;;;;;;5014333;28;20057;-73
2022/07/25 09:58:23;;;;;;;9.70;7.47;;;32.10;94.10;;;;;;5014316;28;20022;-73
2022/07/25 10:00:50;;;;;;;9.65;7.78;;;32.00;93.80;;;;;;5013611;28;20112;-73
2022/07/25 10:03:51;;;;;;;8.65;7.82;;;32.00;94.10;;;;;;5014177;28;20542;-73
2022/07/25 10:06:38;;;;;;;10.20;7.60;;;32.30;93.80;;;;;;5003651;28;20030;-73
2022/07/25 10:09:12;;;;;;;9.02;8.10;;;32.30;93.30;;;;;;5013968;28;20079;-73
2022/07/25 10:11:38;;;;;;;9.45;8.52;;;32.40;93.40;;;;;;5013544;28;20018;-73
2022/07/25 10:14:11;;;;;;;10.57;8.23;;;32.50;92.90;;;;;;5014063;28;20044;-73
2022/07/25 10:16:47;;;;;;;8.68;7.78;;;32.60;93.10;;;;;;5013872;28;20503;-73
2022/07/25 10:19:13;;;;;;;8.20;7.50;;;32.70;92.70;;;;;;5013935;28;20090;-73
2022/07/25 10:21:39;;;;;;;8.50;7.70;;;32.90;92.60;;;;;;5013265;28;20068;-72
2022/07/25 10:24:08;;;;;;;8.73;7.93;;;32.90;92.50;;;;;;5013861;28;20017;-72
2022/07/25 10:26:38;;;;;;;8.43;7.72;;;32.60;92.00;;;;;;5013687;28;20057;-73
2022/07/25 10:29:10;;;;;;;10.95;7.82;;;32.80;92.30;;;;;;5013834;28;20026;-73
2022/07/25 10:31:40;;;;;;;9.48;8.57;;;33.10;92.10;;;;;;5012133;28;20033;-73
2022/07/25 10:34:08;;;;;;;9.63;7.88;;;33.20;92.00;;;;;;5013581;28;20088;-73
2022/07/25 10:36:45;;;;;;;9.27;8.27;;;33.50;91.70;;;;;;5013540;28;20026;-73
2022/07/25 10:39:13;;;;;;;8.93;8.10;;;33.30;91.50;;;;;;5013604;28;20030;-73
2022/07/25 10:41:41;;;;;;;8.52;7.72;;;33.40;91.60;;;;;;5012714;28;20034;-73
2022/07/25 10:44:14;;;;;;;9.15;7.68;;;33.50;91.80;;;;;;5013260;28;20041;-73
2022/07/25 10:46:43;;;;;;;8.35;7.47;;;33.80;91.20;;;;;;5013433;28;20022;-73
2022/07/25 10:49:38;;;;;;;9.20;8.02;;;33.70;91.10;;;;;;5013163;28;20041;-73
2022/07/25 10:52:04;;;;;;;8.52;7.60;;;33.70;90.80;;;;;;5009498;28;20041;-73
2022/07/25 10:54:35;;;;;;;9.32;8.20;;;33.80;90.60;;;;;;5013190;28;20033;-73
2022/07/25 10:57:03;;;;;;;7.75;7.00;;;33.60;90.00;;;;;;5012953;28;20030;-73
2022/07/25 10:59:35;;;;;;;8.32;7.53;;;33.40;88.90;;;;;;5013088;28;20022;-73
2022/07/25 11:02:03;;;;;;;8.50;7.70;;;33.30;89.80;;;;;;5012948;28;20116;-73
2022/07/25 11:04:29;;;;;;;8.23;7.53;;;33.10;89.80;;;;;;5009833;28;20447;-73
2022/07/25 11:06:55;;;;;;;8.85;7.95;;;33.30;90.00;;;;;;5012830;28;20388;-73
2022/07/25 11:09:27;;;;;;;8.38;7.63;;;33.90;90.00;;;;;;5012969;28;20022;-73
2022/07/25 11:11:56;;;;;;;8.88;7.40;;;34.10;89.50;;;;;;5012267;28;20031;-73
2022/07/25 11:14:33;;;;;;;8.65;7.68;;;34.20;89.60;;;;;;5012851;28;20037;-73
2022/07/25 11:17:21;;;;;;;8.70;7.40;;;34.00;88.60;;;;;;5012916;28;20493;-73
2022/07/25 11:20:00;;;;;;;10.07;7.80;;;34.20;89.60;;;;;;5012707;28;20030;-73
2022/07/25 11:22:27;;;;;;;8.23;7.60;;;34.50;88.70;;;;;;5007399;28;20033;-73
2022/07/25 11:24:54;;;;;;;11.13;8.02;;;34.30;88.10;;;;;;5008226;28;20045;-73
2022/07/25 11:27:29;;;;;;;8.35;7.55;;;34.90;89.00;;;;;;5012650;28;20045;-73
2022/07/25 11:30:07;;;;;;;;;;;34.90;87.60;;;;;;5013044;28;20022;-73
2022/07/25 11:32:52;;;;;;;8.93;8.02;;;34.30;88.00;;;;;;5012065;28;20441;-73
2022/07/25 11:35:24;;;;;;;9.20;8.40;;;34.70;88.30;;;;;;5012606;28;20099;-73
2022/07/25 11:37:51;;;;;;;11.35;8.35;;;34.10;87.90;;;;;;5012267;28;20507;-73
2022/07/25 11:40:18;;;;;;;9.95;8.95;;;33.70;87.80;;;;;;5011882;28;20026;-73
2022/07/25 11:42:46;;;;;;;9.35;8.55;;;33.00;89.20;;;;;;5012242;28;20097;-73
2022/07/25 11:45:32;;;;;;;10.82;8.70;;;33.90;89.80;;;;;;5012979;28;20546;-73
2022/07/25 11:48:04;;;;;;;;;;;34.40;87.90;;;;;;5012768;28;20109;-73
2022/07/25 11:50:31;;;;;;;9.30;8.13;;;34.20;87.20;;;;;;5011788;28;19932;-73
2022/07/25 11:53:05;;;;;;;9.40;8.40;;;34.10;87.90;;;;;;5012311;28;20064;-72
2022/07/25 11:55:36;;;;;;;9.07;8.10;;;34.70;86.90;;;;;;5012270;28;20057;-73
2022/07/25 11:58:03;;;;;;;9.05;8.10;;;35.00;87.10;;;;;;5012232;28;20045;-73
2022/07/25 12:00:32;;;;;;;9.23;8.30;;;35.30;87.40;;;;;;5011392;28;20030;-73
2022/07/25 12:03:09;;;;;;;9.07;8.27;;;35.80;86.50;;;;;;5012194;28;20022;-73
2022/07/25 12:05:35;;;;;;;9.25;7.93;;;35.90;86.20;;;;;;5011899;28;20026;-73
2022/07/25 12:08:15;;;;;;;9.60;8.68;;;35.30;85.40;;;;;;5012050;28;20025;-73
2022/07/25 12:10:46;;;;;;;9.35;8.45;;;35.10;86.70;;;;;;5011298;28;20018;-73
2022/07/25 12:13:24;;;;;;;9.27;8.38;;;34.90;86.10;;;;;;5012088;28;20080;-73
2022/07/25 12:15:50;;;;;;;8.77;7.85;;;35.00;86.20;;;;;;5011921;28;20025;-73
2022/07/25 12:18:16;;;;;;;9.70;8.68;;;35.60;85.50;;;;;;5012353;28;20096;-73
2022/07/25 12:20:43;;;;;;;8.75;8.00;;;36.20;86.10;;;;;;5030831;28;20040;-73
2022/07/25 12:23:11;;;;;;;9.05;8.15;;;36.70;85.60;;;;;;5031372;28;20025;-73
2022/07/25 12:25:38;;;;;;;9.27;7.70;;;36.90;84.20;;;;;;5031187;28;20026;-73
2022/07/25 12:28:05;;;;;;;8.88;8.07;;;35.90;83.00;;;;;;5031242;28;20045;-73
2022/07/25 12:30:30;;;;;;;8.77;7.80;;;35.00;84.90;;;;;;5030688;28;20029;-73
2022/07/25 12:32:57;;;;;;;8.30;7.50;;;36.00;84.00;;;;;;5018260;28;20037;-72
2022/07/25 12:35:23;;;;;;;8.27;7.57;;;35.60;84.00;;;;;;5031429;28;20514;-75
2022/07/25 12:37:49;;;;;;;8.68;7.85;;;35.60;82.90;;;;;;5031171;28;20535;-74
2022/07/25 12:40:15;;;;;;;8.18;7.47;;;36.20;83.80;;;;;;5030893;28;20026;-73
2022/07/25 12:42:42;;;;;;;8.90;7.15;;;36.90;82.30;;;;;;5029205;28;20026;-73